createdAt,value
2019-04-04T00:01:06.661Z,13.53
2019-04-04T00:03:38.536Z,14.20
2019-04-04T00:06:10.336Z,13.93
2019-04-04T00:08:42.461Z,12.40
2019-04-04T00:11:14.236Z,11.87
2019-04-04T00:13:46.580Z,14.20
2019-04-04T00:16:18.355Z,12.93
2019-04-04T00:18:51.752Z,12.90
2019-04-04T00:21:23.528Z,13.30
2019-04-04T00:23:55.324Z,11.97
2019-04-04T00:26:27.146Z,13.27
2019-04-04T00:29:01.346Z,12.53
2019-04-04T00:31:32.869Z,13.63
2019-04-04T00:34:04.952Z,12.80
2019-04-04T00:36:36.830Z,12.03
2019-04-04T00:39:10.021Z,11.13
2019-04-04T00:41:42.965Z,13.73
2019-04-04T00:44:15.670Z,12.83
2019-04-04T00:46:47.433Z,13.60
2019-04-04T00:49:20.624Z,11.57
2019-04-04T00:51:52.394Z,12.17
2019-04-04T00:54:24.444Z,12.57
2019-04-04T00:56:56.240Z,11.70
2019-04-04T00:59:28.375Z,12.53
2019-04-04T01:02:00.140Z,12.20
2019-04-04T01:04:31.975Z,12.13
2019-04-04T01:07:04.991Z,13.50
2019-04-04T01:09:37.861Z,11.80
2019-04-04T01:12:09.648Z,13.00
2019-04-04T01:14:41.691Z,11.60
2019-04-04T01:17:13.445Z,12.67
2019-04-04T01:19:48.826Z,12.13
2019-04-04T01:22:18.882Z,11.60
2019-04-04T01:24:50.888Z,11.50
2019-04-04T01:27:22.646Z,11.43
2019-04-04T01:29:54.847Z,12.37
2019-04-04T01:32:26.593Z,12.03
2019-04-04T01:34:58.643Z,12.90
2019-04-04T01:37:30.378Z,11.97
2019-04-04T01:40:03.010Z,11.73
2019-04-04T01:42:37.813Z,10.23
2019-04-04T01:45:12.862Z,11.27
2019-04-04T01:47:43.486Z,12.20
2019-04-04T01:50:15.561Z,12.67
2019-04-04T01:52:47.371Z,11.10
2019-04-04T01:55:19.155Z,11.77
2019-04-04T01:57:51.391Z,12.00
2019-04-04T02:00:23.433Z,13.30
2019-04-04T02:02:55.210Z,12.47
2019-04-04T02:05:27.604Z,11.87
2019-04-04T02:08:00.947Z,12.93
2019-04-04T02:10:34.960Z,13.07
2019-04-04T02:13:09.498Z,11.37
2019-04-04T02:15:40.520Z,12.03
2019-04-04T02:18:12.277Z,10.70
2019-04-04T02:20:44.108Z,11.50
2019-04-04T02:23:17.129Z,12.60
2019-04-04T02:25:48.912Z,12.83
2019-04-04T02:28:20.660Z,13.03
2019-04-04T02:30:53.269Z,9.83
2019-04-04T02:33:25.073Z,10.07
2019-04-04T02:35:56.808Z,12.37
2019-04-04T02:38:28.713Z,11.00
2019-04-04T02:41:00.753Z,9.43
2019-04-04T02:43:32.524Z,10.63
2019-04-04T02:46:04.878Z,9.97
2019-04-04T02:48:36.654Z,11.33
2019-04-04T02:51:08.647Z,10.77
2019-04-04T02:53:40.481Z,11.27
2019-04-04T02:56:12.527Z,10.63
2019-04-04T02:58:46.486Z,10.90
2019-04-04T03:01:18.008Z,9.50
2019-04-04T03:03:49.757Z,11.00
2019-04-04T03:06:24.262Z,10.30
2019-04-04T03:08:55.017Z,11.00
2019-04-04T03:11:26.983Z,10.90
2019-04-04T03:14:03.402Z,10.70
2019-04-04T03:16:32.843Z,10.73
2019-04-04T03:19:04.682Z,11.43
2019-04-04T03:21:36.679Z,10.50
2019-04-04T03:24:08.455Z,11.60
2019-04-04T03:26:40.496Z,10.37
2019-04-04T03:29:12.242Z,11.70
2019-04-04T03:31:44.629Z,9.87
2019-04-04T03:34:16.427Z,10.87
2019-04-04T03:36:48.461Z,11.23
2019-04-04T03:39:20.598Z,9.87
2019-04-04T03:41:52.620Z,10.90
2019-04-04T03:44:24.423Z,10.17
2019-04-04T03:46:56.830Z,10.13
2019-04-04T03:49:28.632Z,10.83
2019-04-04T03:52:00.644Z,10.23
2019-04-04T03:54:32.401Z,10.07
2019-04-04T03:57:04.574Z,11.30
2019-04-04T03:59:36.341Z,10.80
2019-04-04T04:02:08.706Z,11.20
2019-04-04T04:04:40.447Z,10.47
2019-04-04T04:07:15.162Z,11.00
2019-04-04T04:09:45.920Z,11.13
2019-04-04T04:12:17.698Z,11.50
2019-04-04T04:14:53.849Z,11.87
2019-04-04T04:17:22.980Z,11.97
2019-04-04T04:19:54.749Z,11.03
2019-04-04T04:22:26.571Z,11.00
2019-04-04T04:25:02.163Z,11.03
2019-04-04T04:27:32.061Z,11.93
2019-04-04T04:30:07.249Z,10.53
2019-04-04T04:32:38.058Z,11.33
2019-04-04T04:35:10.280Z,15.23
2019-04-04T04:37:41.997Z,12.43
2019-04-04T04:40:14.961Z,13.27
2019-04-04T04:42:47.728Z,11.20
2019-04-04T04:45:20.694Z,10.20
2019-04-04T04:47:55.967Z,11.50
2019-04-04T04:50:26.415Z,11.33
2019-04-04T04:52:58.418Z,12.40
2019-04-04T04:55:30.176Z,10.87
2019-04-04T04:58:02.051Z,10.93
2019-04-04T05:00:33.800Z,10.60
2019-04-04T05:03:06.173Z,11.57
2019-04-04T05:05:37.974Z,12.10
2019-04-04T05:08:10.607Z,10.20
2019-04-04T05:10:45.665Z,10.30
2019-04-04T05:13:16.999Z,10.60
2019-04-04T05:15:48.758Z,10.63
2019-04-04T05:18:20.843Z,11.13
2019-04-04T05:20:52.598Z,11.17
2019-04-04T05:23:24.687Z,10.70
2019-04-04T05:25:56.401Z,10.97
2019-04-04T05:28:28.251Z,9.73
2019-04-04T05:31:00.064Z,11.80
2019-04-04T05:33:32.429Z,10.07
2019-04-04T05:36:05.290Z,10.70
2019-04-04T05:38:37.910Z,10.70
2019-04-04T05:41:09.674Z,11.70
2019-04-04T05:43:41.467Z,11.63
2019-04-04T05:46:13.230Z,10.70
2019-04-04T05:48:46.372Z,10.57
2019-04-04T05:51:18.192Z,12.00
2019-04-04T05:53:50.488Z,9.67
2019-04-04T05:56:24.283Z,10.33
2019-04-04T05:58:55.776Z,12.17
2019-04-04T06:01:27.546Z,10.97
2019-04-04T06:03:59.377Z,11.90
2019-04-04T06:06:33.180Z,9.73
2019-04-04T06:09:06.472Z,10.37
2019-04-04T06:11:38.283Z,11.17
2019-04-04T06:14:10.098Z,10.50
2019-04-04T06:16:41.854Z,12.47
2019-04-04T06:19:14.804Z,9.43
2019-04-04T06:21:47.920Z,10.53
2019-04-04T06:24:20.605Z,10.77
2019-04-04T06:26:52.479Z,11.60
2019-04-04T06:29:24.533Z,10.77
2019-04-04T06:31:59.888Z,9.83
2019-04-04T06:34:30.203Z,9.70
2019-04-04T06:37:02.117Z,10.30
2019-04-04T06:39:34.121Z,10.83
2019-04-04T06:42:07.268Z,9.73
2019-04-04T06:44:39.285Z,10.43
2019-04-04T06:47:11.229Z,10.83
2019-04-04T06:49:45.708Z,10.30
2019-04-04T06:52:18.468Z,11.27
2019-04-04T06:54:51.109Z,11.03
2019-04-04T06:57:22.957Z,10.77
2019-04-04T06:59:55.214Z,10.63
2019-04-04T07:02:27.152Z,11.70
2019-04-04T07:04:59.573Z,10.93
2019-04-04T07:07:31.357Z,11.17
2019-04-04T07:10:03.303Z,10.57
2019-04-04T07:12:37.688Z,10.27
2019-04-04T07:15:12.513Z,10.97
2019-04-04T07:17:44.198Z,10.73
2019-04-04T07:20:17.076Z,12.23
2019-04-04T07:22:49.505Z,12.43
2019-04-04T07:25:21.605Z,10.77
2019-04-04T07:27:53.385Z,11.90
2019-04-04T07:30:26.084Z,11.20
2019-04-04T07:32:59.058Z,11.57
2019-04-04T07:35:31.050Z,11.90
2019-04-04T07:38:03.038Z,11.33
2019-04-04T07:40:37.144Z,10.90
2019-04-04T07:43:08.801Z,11.53
2019-04-04T07:45:40.920Z,11.07
2019-04-04T07:48:12.712Z,12.03
2019-04-04T07:50:44.961Z,11.33
2019-04-04T07:53:16.790Z,11.43
2019-04-04T07:55:48.902Z,12.00
2019-04-04T07:58:20.746Z,12.17
2019-04-04T08:00:52.816Z,12.17
2019-04-04T08:03:24.562Z,14.60
2019-04-04T08:05:56.690Z,12.87
2019-04-04T08:08:28.528Z,11.80
2019-04-04T08:11:00.673Z,12.00
2019-04-04T08:13:33.534Z,13.63
2019-04-04T08:16:06.010Z,14.97
2019-04-04T08:18:37.863Z,13.87
2019-04-04T08:21:09.911Z,13.20
2019-04-04T08:23:41.677Z,12.70
2019-04-04T08:26:13.502Z,14.47
2019-04-04T08:28:45.322Z,12.07
2019-04-04T08:31:17.297Z,13.80
2019-04-04T08:33:49.137Z,14.50
2019-04-04T08:36:21.343Z,13.97
2019-04-04T08:38:53.287Z,14.13
2019-04-04T08:41:25.113Z,14.63
2019-04-04T08:43:56.994Z,13.90
2019-04-04T08:46:29.193Z,13.43
2019-04-04T08:49:00.924Z,14.93
2019-04-04T08:51:33.325Z,13.40
2019-04-04T08:54:05.421Z,13.47
2019-04-04T08:56:37.555Z,13.87
2019-04-04T08:59:09.329Z,13.67
2019-04-04T09:01:41.186Z,14.03
2019-04-04T09:04:12.975Z,14.83
2019-04-04T09:06:45.116Z,14.37
2019-04-04T09:09:16.942Z,15.10
2019-04-04T09:11:48.788Z,15.13
2019-04-04T09:14:20.601Z,13.38
2019-04-04T09:16:52.605Z,13.58
2019-04-04T09:19:24.399Z,14.70
2019-04-04T09:21:56.239Z,15.43
2019-04-04T09:24:28.268Z,14.20
2019-04-04T09:27:00.123Z,14.50
2019-04-04T09:29:31.954Z,13.05
2019-04-04T09:32:04.133Z,14.60
2019-04-04T09:34:37.182Z,15.45
2019-04-04T09:37:09.516Z,14.23
2019-04-04T09:39:41.337Z,15.25
2019-04-04T09:42:13.474Z,15.65
2019-04-04T09:44:45.379Z,15.55
2019-04-04T09:47:17.562Z,15.95
2019-04-04T09:49:49.361Z,14.47
2019-04-04T09:52:21.897Z,14.30
2019-04-04T09:54:53.713Z,15.23
2019-04-04T09:57:25.517Z,15.58
2019-04-04T09:59:57.364Z,13.45
2019-04-04T10:02:29.213Z,14.00
2019-04-04T10:05:01.022Z,15.53
2019-04-04T10:07:33.170Z,14.73
2019-04-04T10:10:06.518Z,12.53
2019-04-04T10:12:38.608Z,14.13
2019-04-04T10:15:10.978Z,13.43
2019-04-04T10:17:43.169Z,12.63
2019-04-04T10:20:15.076Z,13.03
2019-04-04T10:22:46.975Z,14.00
2019-04-04T10:25:18.784Z,14.40
2019-04-04T10:27:50.605Z,12.68
2019-04-04T10:30:22.668Z,14.30
2019-04-04T10:32:54.571Z,13.58
2019-04-04T10:35:26.389Z,13.78
2019-04-04T10:37:58.478Z,14.58
2019-04-04T10:40:30.237Z,14.78
2019-04-04T10:43:03.621Z,15.50
2019-04-04T10:45:35.371Z,13.62
2019-04-04T10:48:07.440Z,14.80
2019-04-04T10:50:39.228Z,14.73
2019-04-04T10:53:11.325Z,13.90
2019-04-04T10:55:43.113Z,13.62
2019-04-04T10:58:15.195Z,14.63
2019-04-04T11:00:46.963Z,14.47
2019-04-04T11:03:18.805Z,15.03
2019-04-04T11:05:50.695Z,15.23
2019-04-04T11:08:22.840Z,14.50
2019-04-04T11:10:54.660Z,14.90
2019-04-04T11:13:33.522Z,14.05
2019-04-04T11:16:00.115Z,14.70
2019-04-04T11:18:31.944Z,15.18
2019-04-04T11:21:03.726Z,15.53
2019-04-04T11:23:37.040Z,15.03
2019-04-04T11:26:08.813Z,14.55
2019-04-04T11:28:40.612Z,17.40
2019-04-04T11:31:12.426Z,14.40
2019-04-04T11:33:44.260Z,12.70
2019-04-04T11:36:16.100Z,15.15
2019-04-04T11:38:48.351Z,12.23
2019-04-04T11:41:20.302Z,16.15
2019-04-04T11:43:52.194Z,14.93
2019-04-04T11:46:23.941Z,13.62
2019-04-04T11:48:55.762Z,15.98
2019-04-04T11:51:27.571Z,15.43
2019-04-04T11:53:59.826Z,16.12
2019-04-04T11:56:31.714Z,16.25
2019-04-04T11:59:04.873Z,15.48
2019-04-04T12:01:39.226Z,15.78
2019-04-04T12:04:11.268Z,15.63
2019-04-04T12:06:43.883Z,16.75
2019-04-04T12:09:16.214Z,16.10
2019-04-04T12:11:48.025Z,15.13
2019-04-04T12:14:19.971Z,16.10
2019-04-04T12:16:51.755Z,14.60
2019-04-04T12:19:23.878Z,15.15
2019-04-04T12:21:55.627Z,16.35
2019-04-04T12:24:27.750Z,16.97
2019-04-04T12:26:59.543Z,16.10
2019-04-04T12:29:31.381Z,16.37
2019-04-04T12:32:03.190Z,14.93
2019-04-04T12:34:35.355Z,14.83
2019-04-04T12:37:07.152Z,16.97
2019-04-04T12:39:39.390Z,16.65
2019-04-04T12:42:11.233Z,16.82
2019-04-04T12:44:43.136Z,15.68
2019-04-04T12:47:14.949Z,14.25
2019-04-04T12:49:46.932Z,16.20
2019-04-04T12:52:18.991Z,15.55
2019-04-04T12:54:51.323Z,14.75
2019-04-04T12:57:23.149Z,13.72
2019-04-04T12:59:55.291Z,15.05
2019-04-04T13:02:27.096Z,16.23
2019-04-04T13:04:59.218Z,15.83
2019-04-04T13:07:32.972Z,15.23
2019-04-04T13:10:11.676Z,16.62
2019-04-04T13:12:41.967Z,15.78
2019-04-04T13:15:16.138Z,15.85
2019-04-04T13:17:47.994Z,16.12
2019-04-04T13:20:20.819Z,16.42
2019-04-04T13:22:52.663Z,17.45
2019-04-04T13:25:24.856Z,15.85
2019-04-04T13:27:56.640Z,16.23
2019-04-04T13:30:28.794Z,16.97
2019-04-04T13:33:00.540Z,15.58
2019-04-04T13:35:32.610Z,15.88
2019-04-04T13:38:04.406Z,15.63
2019-04-04T13:40:45.502Z,17.42
2019-04-04T13:43:09.945Z,16.80
2019-04-04T13:45:41.781Z,16.75
2019-04-04T13:48:13.615Z,17.00
2019-04-04T13:50:45.469Z,16.07
2019-04-04T13:53:17.289Z,17.10
2019-04-04T13:55:49.560Z,17.92
2019-04-04T13:58:22.177Z,17.40
2019-04-04T14:00:55.112Z,16.65
2019-04-04T14:03:27.011Z,17.30
2019-04-04T14:06:01.693Z,16.90
2019-04-04T14:08:32.865Z,16.90
2019-04-04T14:11:05.328Z,17.55
2019-04-04T14:13:37.166Z,17.30
2019-04-04T14:16:09.146Z,16.90
2019-04-04T14:18:44.488Z,16.67
2019-04-04T14:21:15.132Z,16.25
2019-04-04T14:23:46.908Z,15.65
2019-04-04T14:26:19.361Z,16.60
2019-04-04T14:28:51.159Z,17.30
2019-04-04T14:31:23.093Z,16.05
2019-04-04T14:33:54.927Z,17.02
2019-04-04T14:36:26.869Z,15.85
2019-04-04T14:38:58.791Z,17.60
2019-04-04T14:41:31.012Z,15.90
2019-04-04T14:44:03.223Z,16.40
2019-04-04T14:46:37.156Z,18.07
2019-04-04T14:49:09.076Z,17.85
2019-04-04T14:51:41.257Z,15.45
2019-04-04T14:54:13.412Z,17.30
2019-04-04T14:56:45.723Z,16.30
2019-04-04T14:59:17.799Z,17.52
2019-04-04T15:01:50.537Z,17.70
2019-04-04T15:04:22.351Z,17.10
2019-04-04T15:06:54.237Z,17.48
2019-04-04T15:09:26.151Z,14.65
2019-04-04T15:11:58.548Z,17.37
2019-04-04T15:14:30.769Z,16.45
2019-04-04T15:17:03.242Z,16.12
2019-04-04T15:19:35.052Z,15.65
2019-04-04T15:22:06.998Z,18.05
2019-04-04T15:24:38.839Z,16.65
2019-04-04T15:27:10.891Z,16.70
2019-04-04T15:29:42.722Z,16.12
2019-04-04T15:32:15.305Z,16.30
2019-04-04T15:34:47.155Z,16.65
2019-04-04T15:37:19.422Z,15.93
2019-04-04T15:39:51.383Z,15.95
2019-04-04T15:42:23.413Z,14.95
2019-04-04T15:44:55.342Z,15.28
2019-04-04T15:47:27.534Z,15.93
2019-04-04T15:49:59.342Z,16.60
2019-04-04T15:52:31.262Z,16.02
2019-04-04T15:55:03.078Z,16.80
2019-04-04T15:57:35.211Z,16.42
2019-04-04T16:00:10.137Z,16.20
2019-04-04T16:02:42.164Z,16.00
2019-04-04T16:05:14.115Z,17.67
2019-04-04T16:07:46.173Z,16.73
2019-04-04T16:10:18.873Z,17.30
2019-04-04T16:12:51.798Z,15.98
2019-04-04T16:15:24.186Z,13.53
2019-04-04T16:17:56.660Z,14.53
2019-04-04T16:20:28.629Z,16.60
2019-04-04T16:23:00.852Z,15.45
2019-04-04T16:25:32.729Z,14.50
2019-04-04T16:28:05.308Z,16.32
2019-04-04T16:30:37.170Z,16.90
2019-04-04T16:33:09.433Z,17.10
2019-04-04T16:35:41.436Z,15.83
2019-04-04T16:38:13.669Z,16.60
2019-04-04T16:40:46.748Z,15.55
2019-04-04T16:43:19.138Z,15.23
2019-04-04T16:45:50.973Z,16.60
2019-04-04T16:48:23.278Z,16.48
2019-04-04T16:50:55.227Z,15.13
2019-04-04T16:53:29.809Z,15.95
2019-04-04T16:56:00.689Z,15.25
2019-04-04T16:58:33.005Z,16.23
2019-04-04T17:01:04.862Z,15.90
2019-04-04T17:03:37.421Z,17.05
2019-04-04T17:06:09.328Z,15.98
2019-04-04T17:08:41.539Z,15.63
2019-04-04T17:11:13.349Z,16.10
2019-04-04T17:13:45.548Z,14.87
2019-04-04T17:16:17.438Z,15.85
2019-04-04T17:18:49.706Z,16.23
2019-04-04T17:21:21.618Z,15.48
2019-04-04T17:23:53.945Z,16.15
2019-04-04T17:26:26.166Z,17.20
2019-04-04T17:28:58.576Z,15.93
2019-04-04T17:31:30.837Z,16.50
2019-04-04T17:34:03.238Z,16.00
2019-04-04T17:36:35.689Z,17.70
2019-04-04T17:39:09.953Z,14.35
2019-04-04T17:41:42.466Z,16.60
2019-04-04T17:44:15.182Z,15.98
2019-04-04T17:46:47.179Z,16.67
2019-04-04T17:49:19.290Z,19.83
2019-04-04T17:51:51.377Z,19.02
2019-04-04T17:54:23.605Z,17.37
2019-04-04T17:56:56.065Z,16.35
2019-04-04T17:59:30.356Z,19.55
2019-04-04T18:02:02.900Z,19.37
2019-04-04T18:04:47.546Z,17.07
2019-04-04T18:07:09.012Z,17.60
2019-04-04T18:09:41.492Z,17.40
2019-04-04T18:12:13.691Z,17.15
2019-04-04T18:14:46.042Z,18.30
2019-04-04T18:17:18.049Z,17.95
2019-04-04T18:19:50.170Z,18.45
2019-04-04T18:22:22.662Z,17.87
2019-04-04T18:24:55.073Z,17.90
2019-04-04T18:27:28.087Z,18.15
2019-04-04T18:30:00.690Z,17.73
2019-04-04T18:32:32.641Z,18.00
2019-04-04T18:35:06.100Z,18.37
2019-04-04T18:37:39.404Z,17.80
2019-04-04T18:40:12.276Z,15.43
2019-04-04T18:42:53.181Z,17.30
2019-04-04T18:45:18.771Z,16.50
2019-04-04T18:47:50.923Z,17.20
2019-04-04T18:50:23.181Z,17.03
2019-04-04T18:52:55.265Z,17.17
2019-04-04T18:55:27.419Z,16.60
2019-04-04T18:57:59.514Z,16.03
2019-04-04T19:00:31.986Z,15.30
2019-04-04T19:03:04.159Z,17.23
2019-04-04T19:05:36.338Z,17.10
2019-04-04T19:08:08.195Z,16.60
2019-04-04T19:10:40.259Z,16.53
2019-04-04T19:13:12.292Z,15.70
2019-04-04T19:15:45.035Z,16.73
2019-04-04T19:18:16.985Z,15.72
2019-04-04T19:20:48.990Z,16.65
2019-04-04T19:23:20.891Z,18.53
2019-04-04T19:25:52.960Z,18.43
2019-04-04T19:28:25.075Z,18.93
2019-04-04T19:30:58.719Z,19.40
2019-04-04T19:33:30.943Z,18.40
2019-04-04T19:36:03.439Z,15.53
2019-04-04T19:38:35.508Z,19.07
2019-04-04T19:41:08.120Z,16.93
2019-04-04T19:43:40.054Z,15.20
2019-04-04T19:46:12.369Z,17.00
2019-04-04T19:48:44.301Z,16.53
2019-04-04T19:51:16.317Z,15.97
2019-04-04T19:53:48.268Z,15.57
2019-04-04T19:56:20.422Z,15.23
2019-04-04T19:58:52.358Z,15.03
2019-04-04T20:01:25.806Z,16.23
2019-04-04T20:03:58.010Z,16.50
2019-04-04T20:06:30.270Z,15.45
2019-04-04T20:09:02.199Z,17.10
2019-04-04T20:11:36.306Z,16.10
2019-04-04T20:14:08.247Z,16.83
2019-04-04T20:16:40.579Z,17.13
2019-04-04T20:19:12.418Z,18.07
2019-04-04T20:21:44.682Z,14.77
2019-04-04T20:24:16.531Z,14.67
2019-04-04T20:26:48.563Z,19.80
2019-04-04T20:29:20.437Z,17.20
2019-04-04T20:31:52.833Z,17.23
2019-04-04T20:34:24.733Z,20.97
2019-04-04T20:36:58.108Z,17.30
2019-04-04T20:39:29.977Z,16.60
2019-04-04T20:42:02.024Z,17.87
2019-04-04T20:44:33.944Z,16.47
2019-04-04T20:47:06.248Z,15.83
2019-04-04T20:49:38.171Z,14.87
2019-04-04T20:52:11.287Z,15.03
2019-04-04T20:54:43.195Z,17.63
2019-04-04T20:57:15.352Z,17.00
2019-04-04T20:59:47.223Z,15.97
2019-04-04T21:02:19.215Z,17.20
2019-04-04T21:04:54.226Z,15.90
2019-04-04T21:07:24.829Z,15.63
2019-04-04T21:09:56.711Z,16.93
2019-04-04T21:12:28.989Z,16.87
2019-04-04T21:15:01.028Z,16.30
2019-04-04T21:17:33.616Z,14.93
2019-04-04T21:20:06.342Z,17.37
2019-04-04T21:22:38.319Z,15.33
2019-04-04T21:25:10.527Z,15.00
2019-04-04T21:27:43.135Z,14.33
2019-04-04T21:30:15.292Z,15.53
2019-04-04T21:32:47.732Z,14.90
2019-04-04T21:35:19.633Z,15.07
2019-04-04T21:37:51.772Z,13.37
2019-04-04T21:40:23.580Z,14.40
2019-04-04T21:42:55.699Z,13.03
2019-04-04T21:45:27.514Z,13.40
2019-04-04T21:47:59.752Z,12.70
2019-04-04T21:50:31.661Z,13.83
2019-04-04T21:53:03.581Z,14.53
2019-04-04T21:55:35.735Z,15.20
2019-04-04T21:58:07.873Z,15.73
2019-04-04T22:00:47.017Z,17.83
2019-04-04T22:03:21.024Z,16.97
2019-04-04T22:05:52.867Z,14.90
2019-04-04T22:08:25.051Z,14.30
2019-04-04T22:10:57.012Z,15.80
2019-04-04T22:13:29.088Z,14.77
2019-04-04T22:16:00.986Z,14.97
2019-04-04T22:18:33.400Z,15.00
2019-04-04T22:21:05.335Z,13.87
2019-04-04T22:23:37.362Z,13.43
2019-04-04T22:26:10.835Z,14.60
2019-04-04T22:28:43.037Z,13.70
2019-04-04T22:31:14.801Z,14.33
2019-04-04T22:33:47.158Z,13.90
2019-04-04T22:36:19.068Z,13.03
2019-04-04T22:38:51.070Z,12.87
2019-04-04T22:41:22.882Z,14.77
2019-04-04T22:44:03.400Z,14.00
2019-04-04T22:46:28.456Z,12.57
2019-04-04T22:49:01.058Z,14.10
2019-04-04T22:51:32.910Z,14.70
2019-04-04T22:54:04.748Z,14.17
2019-04-04T22:56:36.584Z,13.83
2019-04-04T22:59:08.332Z,13.80
2019-04-04T23:01:40.129Z,15.23
2019-04-04T23:04:12.370Z,13.47
2019-04-04T23:06:44.135Z,15.60
2019-04-04T23:09:15.892Z,14.63
2019-04-04T23:11:47.645Z,14.70
2019-04-04T23:14:19.568Z,15.20
2019-04-04T23:16:51.351Z,15.47
2019-04-04T23:19:23.142Z,13.50
2019-04-04T23:21:54.955Z,14.70
2019-04-04T23:24:27.237Z,15.40
2019-04-04T23:26:59.057Z,14.30
2019-04-04T23:29:31.063Z,12.77
2019-04-04T23:32:04.135Z,13.07
2019-04-04T23:34:36.183Z,13.27
2019-04-04T23:37:08.180Z,11.83
2019-04-04T23:39:39.980Z,13.50
2019-04-04T23:42:11.776Z,12.97
2019-04-04T23:44:43.576Z,12.77
2019-04-04T23:47:16.488Z,12.87
2019-04-04T23:49:48.306Z,11.83
2019-04-04T23:52:20.091Z,12.23
2019-04-04T23:54:52.178Z,12.40
2019-04-04T23:57:23.939Z,13.53
2019-04-04T23:59:55.764Z,13.83
